sensor_id;sensor_type;location;lat;lon;timestamp;P1;durP1;ratioP1;P2;durP2;ratioP2
20229;SDS011;12195;55.790;37.572;2022-08-25T00:00:54;16.70;;;5.85;;
20229;SDS011;12195;55.790;37.572;2022-08-25T00:03:27;20.45;;;6.42;;
20229;SDS011;12195;55.790;37.572;2022-08-25T00:06:02;21.87;;;6.60;;
20229;SDS011;12195;55.790;37.572;2022-08-25T00:11:09;30.90;;;7.00;;
20229;SDS011;12195;55.790;37.572;2022-08-25T00:13:43;18.25;;;5.47;;
20229;SDS011;12195;55.790;37.572;2022-08-25T00:18:50;20.60;;;6.20;;
20229;SDS011;12195;55.790;37.572;2022-08-25T00:21:25;23.12;;;5.95;;
20229;SDS011;12195;55.790;37.572;2022-08-25T00:23:58;19.50;;;6.05;;
20229;SDS011;12195;55.790;37.572;2022-08-25T00:26:31;16.60;;;5.97;;
20229;SDS011;12195;55.790;37.572;2022-08-25T00:29:08;20.75;;;6.45;;
20229;SDS011;12195;55.790;37.572;2022-08-25T00:31:41;21.57;;;6.85;;
20229;SDS011;12195;55.790;37.572;2022-08-25T00:34:15;19.98;;;6.50;;
20229;SDS011;12195;55.790;37.572;2022-08-25T00:36:49;15.55;;;6.08;;
20229;SDS011;12195;55.790;37.572;2022-08-25T00:39:22;16.35;;;5.80;;
20229;SDS011;12195;55.790;37.572;2022-08-25T00:41:55;22.02;;;6.92;;
20229;SDS011;12195;55.790;37.572;2022-08-25T00:44:29;17.95;;;5.60;;
20229;SDS011;12195;55.790;37.572;2022-08-25T00:47:03;22.37;;;5.85;;
20229;SDS011;12195;55.790;37.572;2022-08-25T00:49:41;14.30;;;5.25;;
20229;SDS011;12195;55.790;37.572;2022-08-25T00:52:15;20.50;;;7.17;;
20229;SDS011;12195;55.790;37.572;2022-08-25T00:57:25;14.83;;;5.22;;
20229;SDS011;12195;55.790;37.572;2022-08-25T01:00:03;19.62;;;6.10;;
20229;SDS011;12195;55.790;37.572;2022-08-25T01:02:41;16.67;;;5.53;;
20229;SDS011;12195;55.790;37.572;2022-08-25T01:05:14;15.85;;;5.37;;
20229;SDS011;12195;55.790;37.572;2022-08-25T01:07:47;16.37;;;5.97;;
20229;SDS011;12195;55.790;37.572;2022-08-25T01:10:20;19.15;;;5.70;;
20229;SDS011;12195;55.790;37.572;2022-08-25T01:12:55;17.30;;;6.00;;
20229;SDS011;12195;55.790;37.572;2022-08-25T01:15:29;17.42;;;5.17;;
20229;SDS011;12195;55.790;37.572;2022-08-25T01:18:02;14.15;;;5.65;;
20229;SDS011;12195;55.790;37.572;2022-08-25T01:20:34;16.37;;;5.30;;
20229;SDS011;12195;55.790;37.572;2022-08-25T01:23:07;15.68;;;5.70;;
20229;SDS011;12195;55.790;37.572;2022-08-25T01:26:00;13.35;;;6.00;;
20229;SDS011;12195;55.790;37.572;2022-08-25T01:28:33;15.53;;;5.60;;
20229;SDS011;12195;55.790;37.572;2022-08-25T01:31:05;20.20;;;6.28;;
20229;SDS011;12195;55.790;37.572;2022-08-25T01:33:39;20.95;;;6.42;;
20229;SDS011;12195;55.790;37.572;2022-08-25T01:36:11;20.30;;;5.62;;
20229;SDS011;12195;55.790;37.572;2022-08-25T01:38:45;18.25;;;6.28;;
20229;SDS011;12195;55.790;37.572;2022-08-25T01:41:25;19.62;;;5.97;;
20229;SDS011;12195;55.790;37.572;2022-08-25T01:44:02;16.73;;;5.92;;
20229;SDS011;12195;55.790;37.572;2022-08-25T01:46:39;17.55;;;5.90;;
20229;SDS011;12195;55.790;37.572;2022-08-25T01:49:11;21.50;;;5.70;;
20229;SDS011;12195;55.790;37.572;2022-08-25T01:51:46;15.38;;;5.62;;
20229;SDS011;12195;55.790;37.572;2022-08-25T01:56:49;20.62;;;5.58;;
20229;SDS011;12195;55.790;37.572;2022-08-25T01:59:21;15.25;;;5.40;;
20229;SDS011;12195;55.790;37.572;2022-08-25T02:01:54;17.27;;;5.92;;
20229;SDS011;12195;55.790;37.572;2022-08-25T02:04:28;16.70;;;6.08;;
20229;SDS011;12195;55.790;37.572;2022-08-25T02:07:03;14.13;;;5.78;;
20229;SDS011;12195;55.790;37.572;2022-08-25T02:09:37;12.30;;;5.40;;
20229;SDS011;12195;55.790;37.572;2022-08-25T02:12:10;16.95;;;5.70;;
20229;SDS011;12195;55.790;37.572;2022-08-25T02:14:44;15.78;;;5.62;;
20229;SDS011;12195;55.790;37.572;2022-08-25T02:17:16;26.93;;;6.30;;
20229;SDS011;12195;55.790;37.572;2022-08-25T02:19:48;16.93;;;5.97;;
20229;SDS011;12195;55.790;37.572;2022-08-25T02:22:20;13.62;;;6.12;;
20229;SDS011;12195;55.790;37.572;2022-08-25T02:24:53;18.12;;;6.42;;
20229;SDS011;12195;55.790;37.572;2022-08-25T02:27:25;19.77;;;5.87;;
20229;SDS011;12195;55.790;37.572;2022-08-25T02:29:57;23.02;;;6.80;;
20229;SDS011;12195;55.790;37.572;2022-08-25T02:32:30;21.90;;;6.25;;
20229;SDS011;12195;55.790;37.572;2022-08-25T02:35:03;18.87;;;6.87;;
20229;SDS011;12195;55.790;37.572;2022-08-25T02:37:35;18.95;;;6.55;;
20229;SDS011;12195;55.790;37.572;2022-08-25T02:40:08;15.03;;;5.75;;
20229;SDS011;12195;55.790;37.572;2022-08-25T02:42:40;13.08;;;6.30;;
20229;SDS011;12195;55.790;37.572;2022-08-25T02:45:13;15.65;;;5.78;;
20229;SDS011;12195;55.790;37.572;2022-08-25T02:47:46;17.30;;;5.65;;
20229;SDS011;12195;55.790;37.572;2022-08-25T02:50:18;16.95;;;6.22;;
20229;SDS011;12195;55.790;37.572;2022-08-25T02:52:51;17.30;;;5.85;;
20229;SDS011;12195;55.790;37.572;2022-08-25T02:55:24;17.85;;;5.85;;
20229;SDS011;12195;55.790;37.572;2022-08-25T02:57:56;20.43;;;6.50;;
20229;SDS011;12195;55.790;37.572;2022-08-25T03:00:28;13.15;;;5.85;;
20229;SDS011;12195;55.790;37.572;2022-08-25T03:03:01;26.73;;;8.15;;
20229;SDS011;12195;55.790;37.572;2022-08-25T03:05:33;17.05;;;5.62;;
20229;SDS011;12195;55.790;37.572;2022-08-25T03:08:06;15.80;;;6.50;;
20229;SDS011;12195;55.790;37.572;2022-08-25T03:10:40;15.00;;;5.90;;
20229;SDS011;12195;55.790;37.572;2022-08-25T03:13:12;25.05;;;6.47;;
20229;SDS011;12195;55.790;37.572;2022-08-25T03:15:45;13.03;;;5.72;;
20229;SDS011;12195;55.790;37.572;2022-08-25T03:18:18;13.25;;;5.85;;
20229;SDS011;12195;55.790;37.572;2022-08-25T03:20:53;20.35;;;5.90;;
20229;SDS011;12195;55.790;37.572;2022-08-25T03:23:26;17.00;;;6.15;;
20229;SDS011;12195;55.790;37.572;2022-08-25T03:25:58;18.73;;;6.53;;
20229;SDS011;12195;55.790;37.572;2022-08-25T03:28:48;22.27;;;7.03;;
20229;SDS011;12195;55.790;37.572;2022-08-25T03:31:21;20.80;;;5.97;;
20229;SDS011;12195;55.790;37.572;2022-08-25T03:33:57;16.60;;;6.60;;
20229;SDS011;12195;55.790;37.572;2022-08-25T03:36:30;19.90;;;6.90;;
20229;SDS011;12195;55.790;37.572;2022-08-25T03:39:02;21.23;;;6.83;;
20229;SDS011;12195;55.790;37.572;2022-08-25T03:41:34;17.02;;;6.00;;
20229;SDS011;12195;55.790;37.572;2022-08-25T03:44:07;21.00;;;6.08;;
20229;SDS011;12195;55.790;37.572;2022-08-25T03:46:40;16.32;;;7.03;;
20229;SDS011;12195;55.790;37.572;2022-08-25T03:51:51;20.70;;;5.78;;
20229;SDS011;12195;55.790;37.572;2022-08-25T03:54:24;18.85;;;6.60;;
20229;SDS011;12195;55.790;37.572;2022-08-25T03:56:57;25.37;;;6.47;;
20229;SDS011;12195;55.790;37.572;2022-08-25T03:59:29;21.40;;;6.15;;
20229;SDS011;12195;55.790;37.572;2022-08-25T04:02:01;18.42;;;7.33;;
20229;SDS011;12195;55.790;37.572;2022-08-25T04:04:33;15.65;;;5.92;;
20229;SDS011;12195;55.790;37.572;2022-08-25T04:07:05;19.30;;;6.17;;
20229;SDS011;12195;55.790;37.572;2022-08-25T04:09:38;17.48;;;6.87;;
20229;SDS011;12195;55.790;37.572;2022-08-25T04:12:10;18.32;;;6.00;;
20229;SDS011;12195;55.790;37.572;2022-08-25T04:14:42;15.95;;;6.15;;
20229;SDS011;12195;55.790;37.572;2022-08-25T04:17:14;22.85;;;6.90;;
20229;SDS011;12195;55.790;37.572;2022-08-25T04:19:47;15.45;;;7.25;;
20229;SDS011;12195;55.790;37.572;2022-08-25T04:22:20;21.70;;;7.17;;
20229;SDS011;12195;55.790;37.572;2022-08-25T04:24:53;11.65;;;6.00;;
20229;SDS011;12195;55.790;37.572;2022-08-25T04:27:25;16.00;;;6.47;;
20229;SDS011;12195;55.790;37.572;2022-08-25T04:29:57;22.87;;;6.05;;
20229;SDS011;12195;55.790;37.572;2022-08-25T04:32:30;24.45;;;6.78;;
20229;SDS011;12195;55.790;37.572;2022-08-25T04:35:02;13.90;;;5.97;;
20229;SDS011;12195;55.790;37.572;2022-08-25T04:37:35;15.50;;;6.85;;
20229;SDS011;12195;55.790;37.572;2022-08-25T04:40:07;13.83;;;5.85;;
20229;SDS011;12195;55.790;37.572;2022-08-25T04:42:40;15.75;;;6.80;;
20229;SDS011;12195;55.790;37.572;2022-08-25T04:45:16;20.72;;;6.75;;
20229;SDS011;12195;55.790;37.572;2022-08-25T04:47:48;13.20;;;5.80;;
20229;SDS011;12195;55.790;37.572;2022-08-25T04:50:22;18.05;;;6.37;;
20229;SDS011;12195;55.790;37.572;2022-08-25T04:52:54;18.45;;;6.20;;
20229;SDS011;12195;55.790;37.572;2022-08-25T04:55:26;13.83;;;6.08;;
20229;SDS011;12195;55.790;37.572;2022-08-25T04:57:59;17.35;;;7.03;;
20229;SDS011;12195;55.790;37.572;2022-08-25T05:00:33;21.93;;;7.25;;
20229;SDS011;12195;55.790;37.572;2022-08-25T05:03:06;14.85;;;6.87;;
20229;SDS011;12195;55.790;37.572;2022-08-25T05:05:39;16.70;;;6.75;;
20229;SDS011;12195;55.790;37.572;2022-08-25T05:08:11;17.07;;;6.60;;
20229;SDS011;12195;55.790;37.572;2022-08-25T05:10:44;31.25;;;8.00;;
20229;SDS011;12195;55.790;37.572;2022-08-25T05:13:16;17.12;;;7.20;;
20229;SDS011;12195;55.790;37.572;2022-08-25T05:15:58;17.70;;;6.92;;
20229;SDS011;12195;55.790;37.572;2022-08-25T05:18:29;20.75;;;7.15;;
20229;SDS011;12195;55.790;37.572;2022-08-25T05:21:03;20.70;;;6.25;;
20229;SDS011;12195;55.790;37.572;2022-08-25T05:23:38;16.02;;;7.70;;
20229;SDS011;12195;55.790;37.572;2022-08-25T05:26:24;22.50;;;8.00;;
20229;SDS011;12195;55.790;37.572;2022-08-25T05:28:52;16.37;;;6.58;;
20229;SDS011;12195;55.790;37.572;2022-08-25T05:31:26;23.12;;;7.33;;
20229;SDS011;12195;55.790;37.572;2022-08-25T05:33:59;16.85;;;7.15;;
20229;SDS011;12195;55.790;37.572;2022-08-25T05:36:40;22.05;;;6.53;;
20229;SDS011;12195;55.790;37.572;2022-08-25T05:39:12;23.75;;;7.87;;
20229;SDS011;12195;55.790;37.572;2022-08-25T05:41:44;12.90;;;6.95;;
20229;SDS011;12195;55.790;37.572;2022-08-25T05:44:16;16.15;;;6.12;;
20229;SDS011;12195;55.790;37.572;2022-08-25T05:46:50;19.93;;;7.10;;
20229;SDS011;12195;55.790;37.572;2022-08-25T05:49:23;17.23;;;6.67;;
20229;SDS011;12195;55.790;37.572;2022-08-25T05:51:56;12.45;;;6.20;;
20229;SDS011;12195;55.790;37.572;2022-08-25T05:54:29;12.28;;;6.08;;
20229;SDS011;12195;55.790;37.572;2022-08-25T05:57:01;20.68;;;6.35;;
20229;SDS011;12195;55.790;37.572;2022-08-25T05:59:33;10.00;;;5.12;;
20229;SDS011;12195;55.790;37.572;2022-08-25T06:02:05;13.65;;;6.03;;
20229;SDS011;12195;55.790;37.572;2022-08-25T06:04:55;17.05;;;5.83;;
20229;SDS011;12195;55.790;37.572;2022-08-25T06:07:29;16.70;;;6.60;;
20229;SDS011;12195;55.790;37.572;2022-08-25T06:10:03;16.55;;;6.28;;
20229;SDS011;12195;55.790;37.572;2022-08-25T06:12:38;13.13;;;5.75;;
20229;SDS011;12195;55.790;37.572;2022-08-25T06:15:15;14.65;;;6.78;;
20229;SDS011;12195;55.790;37.572;2022-08-25T06:17:49;12.28;;;6.70;;
20229;SDS011;12195;55.790;37.572;2022-08-25T06:20:25;18.30;;;6.22;;
20229;SDS011;12195;55.790;37.572;2022-08-25T06:22:58;13.62;;;6.50;;
20229;SDS011;12195;55.790;37.572;2022-08-25T06:25:30;11.60;;;5.72;;
20229;SDS011;12195;55.790;37.572;2022-08-25T06:28:03;9.43;;;5.75;;
20229;SDS011;12195;55.790;37.572;2022-08-25T06:30:37;11.05;;;5.97;;
20229;SDS011;12195;55.790;37.572;2022-08-25T06:33:09;19.67;;;6.08;;
20229;SDS011;12195;55.790;37.572;2022-08-25T06:35:42;9.53;;;5.10;;
20229;SDS011;12195;55.790;37.572;2022-08-25T06:38:15;12.75;;;6.15;;
20229;SDS011;12195;55.790;37.572;2022-08-25T06:40:47;11.78;;;5.62;;
20229;SDS011;12195;55.790;37.572;2022-08-25T06:43:21;12.95;;;6.08;;
20229;SDS011;12195;55.790;37.572;2022-08-25T06:45:53;13.43;;;5.70;;
20229;SDS011;12195;55.790;37.572;2022-08-25T06:48:26;13.08;;;5.45;;
20229;SDS011;12195;55.790;37.572;2022-08-25T06:50:58;12.05;;;4.67;;
20229;SDS011;12195;55.790;37.572;2022-08-25T06:53:32;11.48;;;5.05;;
20229;SDS011;12195;55.790;37.572;2022-08-25T06:56:05;8.38;;;4.83;;
20229;SDS011;12195;55.790;37.572;2022-08-25T06:58:38;8.85;;;4.70;;
20229;SDS011;12195;55.790;37.572;2022-08-25T07:01:15;13.65;;;4.90;;
20229;SDS011;12195;55.790;37.572;2022-08-25T07:03:50;10.08;;;4.67;;
20229;SDS011;12195;55.790;37.572;2022-08-25T07:06:29;11.20;;;4.55;;
20229;SDS011;12195;55.790;37.572;2022-08-25T07:09:06;9.23;;;4.37;;
20229;SDS011;12195;55.790;37.572;2022-08-25T07:14:12;14.60;;;5.08;;
20229;SDS011;12195;55.790;37.572;2022-08-25T07:16:46;15.90;;;5.53;;
20229;SDS011;12195;55.790;37.572;2022-08-25T07:19:19;11.47;;;4.73;;
20229;SDS011;12195;55.790;37.572;2022-08-25T07:21:52;7.45;;;4.35;;
20229;SDS011;12195;55.790;37.572;2022-08-25T07:24:24;10.28;;;5.08;;
20229;SDS011;12195;55.790;37.572;2022-08-25T07:26:56;35.17;;;5.90;;
20229;SDS011;12195;55.790;37.572;2022-08-25T07:29:28;10.25;;;5.30;;
20229;SDS011;12195;55.790;37.572;2022-08-25T07:32:03;17.00;;;4.87;;
20229;SDS011;12195;55.790;37.572;2022-08-25T07:34:37;9.28;;;5.37;;
20229;SDS011;12195;55.790;37.572;2022-08-25T07:37:27;12.85;;;5.45;;
20229;SDS011;12195;55.790;37.572;2022-08-25T07:40:01;9.33;;;4.70;;
20229;SDS011;12195;55.790;37.572;2022-08-25T07:42:34;10.80;;;4.67;;
20229;SDS011;12195;55.790;37.572;2022-08-25T07:45:07;10.30;;;4.35;;
20229;SDS011;12195;55.790;37.572;2022-08-25T07:47:40;10.80;;;4.85;;
20229;SDS011;12195;55.790;37.572;2022-08-25T07:50:13;11.30;;;4.30;;
20229;SDS011;12195;55.790;37.572;2022-08-25T07:52:46;10.95;;;6.05;;
20229;SDS011;12195;55.790;37.572;2022-08-25T07:55:21;10.28;;;5.25;;
20229;SDS011;12195;55.790;37.572;2022-08-25T07:57:56;15.43;;;5.37;;
20229;SDS011;12195;55.790;37.572;2022-08-25T08:00:31;13.05;;;5.70;;
20229;SDS011;12195;55.790;37.572;2022-08-25T08:03:06;10.20;;;4.30;;
20229;SDS011;12195;55.790;37.572;2022-08-25T08:05:40;15.70;;;5.10;;
20229;SDS011;12195;55.790;37.572;2022-08-25T08:08:13;7.75;;;4.22;;
20229;SDS011;12195;55.790;37.572;2022-08-25T08:10:47;10.95;;;4.37;;
20229;SDS011;12195;55.790;37.572;2022-08-25T08:13:21;7.20;;;3.75;;
20229;SDS011;12195;55.790;37.572;2022-08-25T08:15:55;10.75;;;4.30;;
20229;SDS011;12195;55.790;37.572;2022-08-25T08:18:29;14.13;;;5.10;;
20229;SDS011;12195;55.790;37.572;2022-08-25T08:21:02;20.25;;;5.20;;
20229;SDS011;12195;55.790;37.572;2022-08-25T08:23:35;11.35;;;5.10;;
20229;SDS011;12195;55.790;37.572;2022-08-25T08:26:07;7.90;;;4.20;;
20229;SDS011;12195;55.790;37.572;2022-08-25T08:28:40;6.45;;;3.77;;
20229;SDS011;12195;55.790;37.572;2022-08-25T08:31:12;13.25;;;4.78;;
20229;SDS011;12195;55.790;37.572;2022-08-25T08:33:47;8.15;;;3.85;;
20229;SDS011;12195;55.790;37.572;2022-08-25T08:36:21;9.98;;;4.47;;
20229;SDS011;12195;55.790;37.572;2022-08-25T08:38:54;7.37;;;4.00;;
20229;SDS011;12195;55.790;37.572;2022-08-25T08:49:56;7.78;;;4.37;;
20229;SDS011;12195;55.790;37.572;2022-08-25T08:55:41;6.25;;;3.70;;
20229;SDS011;12195;55.790;37.572;2022-08-25T08:58:16;6.80;;;4.33;;
20229;SDS011;12195;55.790;37.572;2022-08-25T09:00:59;9.15;;;4.75;;
20229;SDS011;12195;55.790;37.572;2022-08-25T09:03:40;8.23;;;4.17;;
20229;SDS011;12195;55.790;37.572;2022-08-25T09:07:00;7.53;;;4.35;;
20229;SDS011;12195;55.790;37.572;2022-08-25T09:08:53;9.68;;;4.17;;
20229;SDS011;12195;55.790;37.572;2022-08-25T09:23:12;10.65;;;4.47;;
20229;SDS011;12195;55.790;37.572;2022-08-25T09:28:48;9.68;;;4.47;;
20229;SDS011;12195;55.790;37.572;2022-08-25T09:31:29;7.90;;;4.17;;
20229;SDS011;12195;55.790;37.572;2022-08-25T09:34:00;4.78;;;3.60;;
20229;SDS011;12195;55.790;37.572;2022-08-25T09:36:34;6.78;;;3.85;;
20229;SDS011;12195;55.790;37.572;2022-08-25T09:39:07;6.30;;;3.42;;
20229;SDS011;12195;55.790;37.572;2022-08-25T09:41:47;7.58;;;4.20;;
20229;SDS011;12195;55.790;37.572;2022-08-25T09:44:31;6.97;;;4.22;;
20229;SDS011;12195;55.790;37.572;2022-08-25T09:49:41;9.48;;;5.30;;
20229;SDS011;12195;55.790;37.572;2022-08-25T09:57:46;5.15;;;3.55;;
20229;SDS011;12195;55.790;37.572;2022-08-25T10:08:50;9.23;;;4.58;;
20229;SDS011;12195;55.790;37.572;2022-08-25T10:14:18;6.50;;;4.40;;
20229;SDS011;12195;55.790;37.572;2022-08-25T10:16:50;7.12;;;3.40;;
20229;SDS011;12195;55.790;37.572;2022-08-25T10:19:25;5.20;;;3.62;;
20229;SDS011;12195;55.790;37.572;2022-08-25T10:24:40;10.28;;;3.90;;
20229;SDS011;12195;55.790;37.572;2022-08-25T10:27:25;7.00;;;3.30;;
20229;SDS011;12195;55.790;37.572;2022-08-25T10:30:06;6.53;;;3.50;;
20229;SDS011;12195;55.790;37.572;2022-08-25T10:32:43;7.42;;;3.80;;
20229;SDS011;12195;55.790;37.572;2022-08-25T10:35:28;7.80;;;4.03;;
20229;SDS011;12195;55.790;37.572;2022-08-25T10:38:10;5.97;;;4.22;;
20229;SDS011;12195;55.790;37.572;2022-08-25T10:41:07;6.37;;;4.17;;
20229;SDS011;12195;55.790;37.572;2022-08-25T10:46:45;7.20;;;4.00;;
20229;SDS011;12195;55.790;37.572;2022-08-25T10:49:18;7.35;;;4.03;;
20229;SDS011;12195;55.790;37.572;2022-08-25T10:57:15;8.83;;;5.25;;
20229;SDS011;12195;55.790;37.572;2022-08-25T11:00:06;8.28;;;4.50;;
20229;SDS011;12195;55.790;37.572;2022-08-25T11:05:46;7.70;;;4.15;;
20229;SDS011;12195;55.790;37.572;2022-08-25T11:08:38;6.85;;;4.30;;
20229;SDS011;12195;55.790;37.572;2022-08-25T11:14:10;8.33;;;3.95;;
20229;SDS011;12195;55.790;37.572;2022-08-25T11:16:50;7.47;;;4.03;;
20229;SDS011;12195;55.790;37.572;2022-08-25T11:19:41;6.30;;;3.90;;
20229;SDS011;12195;55.790;37.572;2022-08-25T11:22:19;8.00;;;3.83;;
20229;SDS011;12195;55.790;37.572;2022-08-25T11:30:45;8.78;;;4.37;;
20229;SDS011;12195;55.790;37.572;2022-08-25T11:33:18;5.90;;;4.00;;
20229;SDS011;12195;55.790;37.572;2022-08-25T11:35:53;8.10;;;4.75;;
20229;SDS011;12195;55.790;37.572;2022-08-25T11:38:42;4.85;;;3.70;;
20229;SDS011;12195;55.790;37.572;2022-08-25T11:50:28;11.60;;;5.28;;
20229;SDS011;12195;55.790;37.572;2022-08-25T11:55:53;5.50;;;4.08;;
20229;SDS011;12195;55.790;37.572;2022-08-25T11:58:36;7.60;;;4.00;;
20229;SDS011;12195;55.790;37.572;2022-08-25T12:04:14;6.80;;;4.15;;
20229;SDS011;12195;55.790;37.572;2022-08-25T12:12:28;8.85;;;5.12;;
20229;SDS011;12195;55.790;37.572;2022-08-25T12:15:19;9.63;;;4.80;;
20229;SDS011;12195;55.790;37.572;2022-08-25T12:18:15;7.03;;;4.75;;
20229;SDS011;12195;55.790;37.572;2022-08-25T12:23:34;9.08;;;4.20;;
20229;SDS011;12195;55.790;37.572;2022-08-25T12:26:18;17.05;;;5.83;;
20229;SDS011;12195;55.790;37.572;2022-08-25T12:29:08;6.72;;;4.00;;
20229;SDS011;12195;55.790;37.572;2022-08-25T12:34:50;11.08;;;4.20;;
20229;SDS011;12195;55.790;37.572;2022-08-25T12:37:24;7.87;;;4.10;;
20229;SDS011;12195;55.790;37.572;2022-08-25T12:40:00;9.73;;;4.17;;
20229;SDS011;12195;55.790;37.572;2022-08-25T12:42:35;5.97;;;4.00;;
20229;SDS011;12195;55.790;37.572;2022-08-25T12:51:02;4.20;;;3.58;;
20229;SDS011;12195;55.790;37.572;2022-08-25T12:53:40;5.17;;;3.92;;
20229;SDS011;12195;55.790;37.572;2022-08-25T12:56:23;6.37;;;3.35;;
20229;SDS011;12195;55.790;37.572;2022-08-25T13:04:53;4.30;;;3.22;;
20229;SDS011;12195;55.790;37.572;2022-08-25T13:07:36;5.00;;;3.83;;
20229;SDS011;12195;55.790;37.572;2022-08-25T13:10:47;7.75;;;3.55;;
20229;SDS011;12195;55.790;37.572;2022-08-25T13:15:43;5.00;;;3.58;;
20229;SDS011;12195;55.790;37.572;2022-08-25T13:18:20;6.42;;;3.83;;
20229;SDS011;12195;55.790;37.572;2022-08-25T13:23:53;15.25;;;7.12;;
20229;SDS011;12195;55.790;37.572;2022-08-25T13:26:31;8.68;;;3.80;;
20229;SDS011;12195;55.790;37.572;2022-08-25T13:31:56;6.47;;;4.03;;
20229;SDS011;12195;55.790;37.572;2022-08-25T13:34:32;9.15;;;3.85;;
20229;SDS011;12195;55.790;37.572;2022-08-25T13:37:11;6.05;;;3.20;;
20229;SDS011;12195;55.790;37.572;2022-08-25T13:40:09;8.33;;;4.60;;
20229;SDS011;12195;55.790;37.572;2022-08-25T13:42:47;6.47;;;3.95;;
20229;SDS011;12195;55.790;37.572;2022-08-25T13:45:25;7.15;;;3.98;;
20229;SDS011;12195;55.790;37.572;2022-08-25T13:48:00;11.05;;;4.53;;
20229;SDS011;12195;55.790;37.572;2022-08-25T13:50:35;8.70;;;4.35;;
20229;SDS011;12195;55.790;37.572;2022-08-25T13:53:19;7.45;;;3.30;;
20229;SDS011;12195;55.790;37.572;2022-08-25T13:56:01;4.65;;;3.67;;
20229;SDS011;12195;55.790;37.572;2022-08-25T13:58:34;7.12;;;3.90;;
20229;SDS011;12195;55.790;37.572;2022-08-25T14:01:10;8.65;;;4.30;;
20229;SDS011;12195;55.790;37.572;2022-08-25T14:03:46;5.67;;;3.98;;
20229;SDS011;12195;55.790;37.572;2022-08-25T14:06:23;6.67;;;4.28;;
20229;SDS011;12195;55.790;37.572;2022-08-25T14:11:40;7.90;;;4.30;;
20229;SDS011;12195;55.790;37.572;2022-08-25T14:19:41;12.98;;;4.25;;
20229;SDS011;12195;55.790;37.572;2022-08-25T14:22:13;9.53;;;4.65;;
20229;SDS011;12195;55.790;37.572;2022-08-25T14:24:45;7.55;;;3.90;;
20229;SDS011;12195;55.790;37.572;2022-08-25T14:27:19;11.90;;;4.40;;
20229;SDS011;12195;55.790;37.572;2022-08-25T14:29:52;8.20;;;3.83;;
20229;SDS011;12195;55.790;37.572;2022-08-25T14:32:24;37.60;;;8.28;;
20229;SDS011;12195;55.790;37.572;2022-08-25T14:34:56;7.75;;;5.35;;
20229;SDS011;12195;55.790;37.572;2022-08-25T14:37:30;8.38;;;4.40;;
20229;SDS011;12195;55.790;37.572;2022-08-25T14:40:04;8.05;;;4.17;;
20229;SDS011;12195;55.790;37.572;2022-08-25T14:42:38;8.25;;;4.08;;
20229;SDS011;12195;55.790;37.572;2022-08-25T14:45:11;4.85;;;3.80;;
20229;SDS011;12195;55.790;37.572;2022-08-25T14:47:44;5.92;;;3.47;;
20229;SDS011;12195;55.790;37.572;2022-08-25T14:50:18;22.58;;;5.70;;
20229;SDS011;12195;55.790;37.572;2022-08-25T14:52:53;9.35;;;3.98;;
20229;SDS011;12195;55.790;37.572;2022-08-25T14:55:27;16.42;;;4.65;;
20229;SDS011;12195;55.790;37.572;2022-08-25T14:58:01;14.90;;;5.72;;
20229;SDS011;12195;55.790;37.572;2022-08-25T15:00:36;17.07;;;5.08;;
20229;SDS011;12195;55.790;37.572;2022-08-25T15:03:14;10.25;;;5.25;;
20229;SDS011;12195;55.790;37.572;2022-08-25T15:05:49;13.58;;;5.15;;
20229;SDS011;12195;55.790;37.572;2022-08-25T15:08:22;9.93;;;4.67;;
20229;SDS011;12195;55.790;37.572;2022-08-25T15:11:12;5.40;;;4.30;;
20229;SDS011;12195;55.790;37.572;2022-08-25T15:13:46;10.58;;;5.25;;
20229;SDS011;12195;55.790;37.572;2022-08-25T15:16:26;8.88;;;4.70;;
20229;SDS011;12195;55.790;37.572;2022-08-25T15:19:05;7.12;;;4.28;;
20229;SDS011;12195;55.790;37.572;2022-08-25T15:21:40;6.03;;;4.53;;
20229;SDS011;12195;55.790;37.572;2022-08-25T15:24:14;8.40;;;5.20;;
20229;SDS011;12195;55.790;37.572;2022-08-25T15:29:23;6.85;;;4.10;;
20229;SDS011;12195;55.790;37.572;2022-08-25T15:31:59;11.73;;;5.53;;
20229;SDS011;12195;55.790;37.572;2022-08-25T15:34:34;6.00;;;4.55;;
20229;SDS011;12195;55.790;37.572;2022-08-25T15:37:09;9.47;;;5.37;;
20229;SDS011;12195;55.790;37.572;2022-08-25T15:39:45;9.45;;;4.45;;
20229;SDS011;12195;55.790;37.572;2022-08-25T15:42:18;12.88;;;5.12;;
20229;SDS011;12195;55.790;37.572;2022-08-25T15:44:50;7.25;;;4.78;;
20229;SDS011;12195;55.790;37.572;2022-08-25T15:47:23;10.35;;;4.70;;
20229;SDS011;12195;55.790;37.572;2022-08-25T15:50:04;18.77;;;5.45;;
20229;SDS011;12195;55.790;37.572;2022-08-25T15:52:36;8.25;;;4.60;;
20229;SDS011;12195;55.790;37.572;2022-08-25T15:55:10;7.08;;;4.50;;
20229;SDS011;12195;55.790;37.572;2022-08-25T15:57:43;8.50;;;4.67;;
20229;SDS011;12195;55.790;37.572;2022-08-25T16:00:18;11.00;;;4.97;;
20229;SDS011;12195;55.790;37.572;2022-08-25T16:02:50;6.95;;;4.40;;
20229;SDS011;12195;55.790;37.572;2022-08-25T16:05:23;8.43;;;4.72;;
20229;SDS011;12195;55.790;37.572;2022-08-25T16:07:56;11.80;;;5.30;;
20229;SDS011;12195;55.790;37.572;2022-08-25T16:10:42;9.60;;;5.00;;
20229;SDS011;12195;55.790;37.572;2022-08-25T16:13:07;10.45;;;4.50;;
20229;SDS011;12195;55.790;37.572;2022-08-25T16:15:44;6.10;;;4.22;;
20229;SDS011;12195;55.790;37.572;2022-08-25T16:18:18;6.45;;;4.30;;
20229;SDS011;12195;55.790;37.572;2022-08-25T16:20:51;8.43;;;5.80;;
20229;SDS011;12195;55.790;37.572;2022-08-25T16:23:24;10.43;;;4.78;;
20229;SDS011;12195;55.790;37.572;2022-08-25T16:25:56;8.38;;;5.00;;
20229;SDS011;12195;55.790;37.572;2022-08-25T16:28:29;10.95;;;4.83;;
20229;SDS011;12195;55.790;37.572;2022-08-25T16:31:02;11.83;;;4.58;;
20229;SDS011;12195;55.790;37.572;2022-08-25T16:33:36;10.82;;;5.17;;
20229;SDS011;12195;55.790;37.572;2022-08-25T16:36:10;7.92;;;4.87;;
20229;SDS011;12195;55.790;37.572;2022-08-25T16:38:44;10.58;;;4.87;;
20229;SDS011;12195;55.790;37.572;2022-08-25T16:41:21;10.75;;;4.50;;
20229;SDS011;12195;55.790;37.572;2022-08-25T16:43:56;9.18;;;4.80;;
20229;SDS011;12195;55.790;37.572;2022-08-25T16:46:28;7.55;;;4.85;;
20229;SDS011;12195;55.790;37.572;2022-08-25T16:49:01;10.05;;;4.90;;
20229;SDS011;12195;55.790;37.572;2022-08-25T16:51:36;7.53;;;4.58;;
20229;SDS011;12195;55.790;37.572;2022-08-25T16:54:12;8.98;;;5.42;;
20229;SDS011;12195;55.790;37.572;2022-08-25T16:57:02;8.75;;;4.75;;
20229;SDS011;12195;55.790;37.572;2022-08-25T16:59:34;7.55;;;4.47;;
20229;SDS011;12195;55.790;37.572;2022-08-25T17:02:07;9.75;;;4.72;;
20229;SDS011;12195;55.790;37.572;2022-08-25T17:04:39;6.87;;;4.83;;
20229;SDS011;12195;55.790;37.572;2022-08-25T17:07:14;7.33;;;5.12;;
20229;SDS011;12195;55.790;37.572;2022-08-25T17:12:20;7.70;;;5.42;;
20229;SDS011;12195;55.790;37.572;2022-08-25T17:14:53;16.42;;;5.67;;
20229;SDS011;12195;55.790;37.572;2022-08-25T17:17:27;13.55;;;6.12;;
20229;SDS011;12195;55.790;37.572;2022-08-25T17:20:00;10.03;;;5.37;;
20229;SDS011;12195;55.790;37.572;2022-08-25T17:22:33;16.65;;;6.60;;
20229;SDS011;12195;55.790;37.572;2022-08-25T17:25:07;17.95;;;7.53;;
20229;SDS011;12195;55.790;37.572;2022-08-25T17:27:40;11.90;;;7.47;;
20229;SDS011;12195;55.790;37.572;2022-08-25T17:30:12;17.62;;;7.40;;
20229;SDS011;12195;55.790;37.572;2022-08-25T17:32:45;21.93;;;8.73;;
20229;SDS011;12195;55.790;37.572;2022-08-25T17:35:19;31.60;;;10.55;;